»·PEaware :: N132KT KBTV-KJFK

N132KT :: KBTV-KJFK

FLIGHT INFORMATION

Flight Status: Arrived
Operator: Privately registered:
United States
More flights under this callsign
Pilot: Keith S. (1)
Aircraft: CANADAIR CL-600 CHALLENGER
(CL60)
More flights by this aircraft type
Origin: KBTV Burlington Intl
United States
Destination: KJFK Kennedy Intl
United States
More flights between these airports :: More routes between these airports
Route:
File this flight plan on PilotEdge
Remarks:
Altitude:
(Current/Filed)
28,000ft
Speed:
(Current/Filed)
0kts
Departed: 07-Dec-22 06:08 AM
Arrived: 07-Dec-22 07:02 AM
Distance/Time
Traveled:
231nm/0:54
Distance/Time
To Go:
Arrived

Flight Plot

Page will automatically refresh every two minutes.

Flight plan parsing failed; only flown route is shown


Map Options




Map Legend


Flown Route
Filed Route
Departure Airport
Arrival Airport
Navaid (VOR, NDB)
Fix

Horizontal Profiles

Position Reports

Time Latitude Longitude Heading Altitude Ground
Speed
07-Dec-22 05:39 44.463568 -73.143867 311 312ft 0kts
07-Dec-22 05:40 44.463568 -73.143867 311 312ft 0kts
07-Dec-22 05:41 44.463568 -73.143867 311 312ft 0kts
07-Dec-22 05:42 44.463568 -73.143867 311 312ft 0kts
07-Dec-22 05:43 44.463568 -73.143867 311 312ft 0kts
07-Dec-22 05:44 44.463568 -73.143867 311 312ft 0kts
07-Dec-22 05:45 44.463568 -73.143867 311 312ft 0kts
07-Dec-22 05:46 44.463568 -73.143867 311 312ft 0kts
07-Dec-22 05:47 44.463568 -73.143867 311 312ft 0kts
07-Dec-22 05:48 44.463568 -73.143867 311 312ft 0kts
07-Dec-22 05:49 44.463568 -73.143867 311 312ft 0kts
07-Dec-22 05:50 44.463568 -73.143867 311 312ft 0kts
07-Dec-22 05:51 44.463568 -73.143867 311 312ft 0kts
07-Dec-22 05:52 44.463568 -73.143867 311 312ft 0kts
07-Dec-22 05:53 44.463568 -73.143867 311 312ft 0kts
07-Dec-22 05:54 44.463604 -73.143953 295 312ft 0kts
07-Dec-22 05:55 44.463653 -73.144085 299 312ft 0kts
07-Dec-22 05:56 44.463653 -73.144085 299 312ft 0kts
07-Dec-22 05:57 44.463653 -73.144085 299 312ft 0kts
07-Dec-22 05:58 44.463653 -73.144085 299 312ft 0kts
07-Dec-22 05:59 44.463653 -73.144085 299 312ft 0kts
07-Dec-22 06:00 44.463653 -73.144085 299 312ft 0kts
07-Dec-22 06:01 44.465263 -73.143904 310 312ft 9kts
07-Dec-22 06:02 44.468058 -73.148370 311 312ft 19kts
07-Dec-22 06:03 44.471309 -73.153602 311 312ft 21kts
07-Dec-22 06:04 44.475157 -73.159890 311 312ft 21kts
07-Dec-22 06:05 44.479043 -73.166143 310 312ft 0kts
07-Dec-22 06:06 44.480128 -73.166351 40 312ft 7kts
07-Dec-22 06:07 44.477480 -73.160680 130 312ft 115kts
07-Dec-22 06:08 44.442475 -73.113158 157 4210ft 219kts
07-Dec-22 06:09 44.368366 -73.133916 196 6884ft 303kts
07-Dec-22 06:10 44.288918 -73.167943 198 12432ft 318kts
07-Dec-22 06:11 44.200800 -73.205338 197 16640ft 346kts
07-Dec-22 06:12 44.105364 -73.245491 198 20050ft 373kts
07-Dec-22 06:13 44.004013 -73.287995 198 23117ft 391kts
07-Dec-22 06:14 43.897637 -73.332440 198 25676ft 409kts
07-Dec-22 06:15 43.786081 -73.378909 199 27427ft 435kts
07-Dec-22 06:16 43.665168 -73.429084 199 27525ft 457kts
07-Dec-22 06:17 43.544468 -73.478901 199 27531ft 451kts
07-Dec-22 06:18 43.424053 -73.528406 199 27543ft 452kts
07-Dec-22 06:19 43.303012 -73.577968 199 27557ft 453kts
07-Dec-22 06:20 43.182340 -73.627194 199 27601ft 451kts
07-Dec-22 06:21 43.061705 -73.676207 198 27604ft 453kts
07-Dec-22 06:22 42.940724 -73.725133 198 27606ft 454kts
07-Dec-22 06:23 42.819511 -73.773915 199 27596ft 454kts
07-Dec-22 06:24 42.695302 -73.803336 185 27632ft 459kts
07-Dec-22 06:25 42.567169 -73.806106 184 27665ft 461kts
07-Dec-22 06:26 42.438816 -73.808347 184 27656ft 461kts
07-Dec-22 06:27 42.310029 -73.810734 184 27725ft 464kts
07-Dec-22 06:28 42.180867 -73.812919 184 27705ft 464kts
07-Dec-22 06:29 42.051268 -73.815171 185 27715ft 464kts
07-Dec-22 06:30 41.921828 -73.817448 185 27782ft 467kts
07-Dec-22 06:31 41.792574 -73.819653 185 27816ft 464kts
07-Dec-22 06:32 41.665244 -73.829656 204 25687ft 438kts
07-Dec-22 06:33 41.564228 -73.910378 217 23619ft 418kts
07-Dec-22 06:34 41.468487 -73.992255 217 21730ft 404kts
07-Dec-22 06:35 41.375094 -74.072273 216 20090ft 395kts
07-Dec-22 06:36 41.283745 -74.150344 216 20065ft 396kts
07-Dec-22 06:37 41.190676 -74.229637 216 20067ft 397kts
07-Dec-22 06:38 41.098488 -74.307457 212 20089ft 385kts
07-Dec-22 06:39 41.001791 -74.282219 134 20097ft 381kts
07-Dec-22 06:40 40.937117 -74.174327 125 19758ft 367kts
07-Dec-22 06:41 40.882233 -74.067231 123 19114ft 348kts
07-Dec-22 06:42 40.830543 -73.962829 123 18175ft 341kts
07-Dec-22 06:43 40.778629 -73.857933 123 18171ft 345kts
07-Dec-22 06:44 40.713133 -73.772242 136 16856ft 331kts
07-Dec-22 06:45 40.646551 -73.690720 137 15079ft 320kts
07-Dec-22 06:46 40.583669 -73.614244 136 13560ft 282kts
07-Dec-22 06:47 40.530229 -73.550004 149 11838ft 254kts
07-Dec-22 06:48 40.464651 -73.553322 186 9726ft 239kts
07-Dec-22 06:49 40.400264 -73.568601 210 7694ft 237kts
07-Dec-22 06:50 40.388900 -73.650750 262 5583ft 234kts
07-Dec-22 06:51 40.377997 -73.733029 262 3745ft 225kts
07-Dec-22 06:52 40.385776 -73.807354 281 2989ft 190kts
07-Dec-22 06:53 40.411341 -73.865344 329 2964ft 184kts
07-Dec-22 06:54 40.454451 -73.901899 330 2971ft 184kts
07-Dec-22 06:55 40.497740 -73.938626 329 2970ft 184kts
07-Dec-22 06:56 40.541477 -73.952444 30 3025ft 168kts
07-Dec-22 06:57 40.582616 -73.920368 31 2646ft 177kts
07-Dec-22 06:58 40.624392 -73.886655 31 1690ft 180kts
07-Dec-22 06:59 40.661543 -73.851969 54 821ft 152kts
07-Dec-22 07:00 40.664809 -73.801063 122 356ft 138kts
07-Dec-22 07:01 40.648724 -73.770278 126 13ft 23kts
07-Dec-22 07:02 40.645546 -73.769505 209 13ft 18kts
07-Dec-22 07:03 40.640808 -73.773782 210 13ft 29kts
07-Dec-22 07:04 40.634077 -73.779686 259 13ft 22kts
07-Dec-22 07:05 40.637498 -73.787911 300 13ft 28kts
07-Dec-22 07:06 40.641875 -73.797424 303 13ft 21kts
07-Dec-22 07:07 40.645843 -73.805171 300 13ft 29kts
07-Dec-22 07:08 40.648087 -73.807837 303 13ft 0kts
07-Dec-22 07:09 40.648086 -73.807837 303 13ft 0kts
07-Dec-22 07:10 40.648086 -73.807837 303 13ft 0kts
07-Dec-22 07:11 40.648086 -73.807837 303 13ft 0kts
07-Dec-22 07:12 40.648086 -73.807837 303 13ft 0kts
07-Dec-22 07:13 40.648086 -73.807837 303 13ft 0kts
07-Dec-22 07:14 40.648086 -73.807837 303 13ft 0kts
07-Dec-22 07:15 40.648086 -73.807837 303 13ft 0kts

Navigation Log

Ident Type
Flight plan parsing failed, navigation log unavailable